Alrewas, United Kingdom
Current Conditions -  °F | °C
As of 3:50 PM on Tuesday 21 Oct 2014 (Local Time) from EGBB Reporting Station
Rain Showers Rain Showers  
Wind Chill: 37°   Ceiling: Unl
Heat Index: 45°   Visibility: 6mi
Dew Point: 39°   Wind: 20mph
Humidity: 81%   Direction: 310°NW
Pressure: 29.8"   Gusts: NA
Location:  52.73°N, 1.75°W
Report Text: EGBB 211450Z 31017KT 270V340 9999 3000E -SHRA FEW007 SCT034CB 07/04 Q1009 RESHRA
Loading
Personal Weather Stations






























Interactive Weather Map
Tropical Storm Tracking
New forecast layout! Learn more

10-Day Weather Forecast

Advertisements
Track Severe Weather on mobile